sensor_id;sensor_type;location;lat;lon;timestamp;P1;durP1;ratioP1;P2;durP2;ratioP2
19929;SDS011;10127;47.780;9.606;2023-02-15T00:00:53;20.37;;;13.87;;
19929;SDS011;10127;47.780;9.606;2023-02-15T00:03:22;23.67;;;14.80;;
19929;SDS011;10127;47.780;9.606;2023-02-15T00:05:47;26.50;;;14.17;;
19929;SDS011;10127;47.780;9.606;2023-02-15T00:08:13;20.87;;;13.83;;
19929;SDS011;10127;47.780;9.606;2023-02-15T00:10:39;22.20;;;14.13;;
19929;SDS011;10127;47.780;9.606;2023-02-15T00:13:04;24.70;;;14.70;;
19929;SDS011;10127;47.780;9.606;2023-02-15T00:15:30;24.30;;;14.63;;
19929;SDS011;10127;47.780;9.606;2023-02-15T00:17:56;24.47;;;14.80;;
19929;SDS011;10127;47.780;9.606;2023-02-15T00:20:22;22.30;;;14.47;;
19929;SDS011;10127;47.780;9.606;2023-02-15T00:22:47;19.37;;;13.53;;
19929;SDS011;10127;47.780;9.606;2023-02-15T00:25:13;20.27;;;12.87;;
19929;SDS011;10127;47.780;9.606;2023-02-15T00:27:38;23.10;;;13.63;;
19929;SDS011;10127;47.780;9.606;2023-02-15T00:30:04;21.33;;;12.63;;
19929;SDS011;10127;47.780;9.606;2023-02-15T00:32:30;21.37;;;13.80;;
19929;SDS011;10127;47.780;9.606;2023-02-15T00:34:56;20.37;;;13.07;;
19929;SDS011;10127;47.780;9.606;2023-02-15T00:37:21;28.93;;;13.50;;
19929;SDS011;10127;47.780;9.606;2023-02-15T00:39:47;20.77;;;13.13;;
19929;SDS011;10127;47.780;9.606;2023-02-15T00:42:13;24.20;;;13.53;;
19929;SDS011;10127;47.780;9.606;2023-02-15T00:44:38;22.77;;;13.97;;
19929;SDS011;10127;47.780;9.606;2023-02-15T00:47:04;21.70;;;13.57;;
19929;SDS011;10127;47.780;9.606;2023-02-15T00:49:29;25.27;;;14.07;;
19929;SDS011;10127;47.780;9.606;2023-02-15T00:51:55;20.33;;;13.47;;
19929;SDS011;10127;47.780;9.606;2023-02-15T00:54:20;22.83;;;13.63;;
19929;SDS011;10127;47.780;9.606;2023-02-15T00:56:46;25.13;;;13.90;;
19929;SDS011;10127;47.780;9.606;2023-02-15T00:59:11;22.50;;;13.90;;
19929;SDS011;10127;47.780;9.606;2023-02-15T01:01:37;18.63;;;12.63;;
19929;SDS011;10127;47.780;9.606;2023-02-15T01:04:02;31.57;;;14.50;;
19929;SDS011;10127;47.780;9.606;2023-02-15T01:06:28;20.97;;;13.53;;
19929;SDS011;10127;47.780;9.606;2023-02-15T01:08:54;22.87;;;13.40;;
19929;SDS011;10127;47.780;9.606;2023-02-15T01:11:20;36.83;;;13.30;;
19929;SDS011;10127;47.780;9.606;2023-02-15T01:13:50;39.43;;;14.63;;
19929;SDS011;10127;47.780;9.606;2023-02-15T01:16:18;22.30;;;13.57;;
19929;SDS011;10127;47.780;9.606;2023-02-15T01:18:44;38.30;;;13.83;;
19929;SDS011;10127;47.780;9.606;2023-02-15T01:21:11;30.80;;;14.80;;
19929;SDS011;10127;47.780;9.606;2023-02-15T01:23:38;25.67;;;14.73;;
19929;SDS011;10127;47.780;9.606;2023-02-15T01:26:04;27.00;;;14.67;;
19929;SDS011;10127;47.780;9.606;2023-02-15T01:28:30;29.57;;;13.93;;
19929;SDS011;10127;47.780;9.606;2023-02-15T01:30:57;33.27;;;13.47;;
19929;SDS011;10127;47.780;9.606;2023-02-15T01:33:23;34.47;;;15.10;;
19929;SDS011;10127;47.780;9.606;2023-02-15T01:35:55;39.90;;;14.80;;
19929;SDS011;10127;47.780;9.606;2023-02-15T01:38:21;33.47;;;14.83;;
19929;SDS011;10127;47.780;9.606;2023-02-15T01:40:47;44.10;;;15.03;;
19929;SDS011;10127;47.780;9.606;2023-02-15T01:43:16;23.97;;;14.40;;
19929;SDS011;10127;47.780;9.606;2023-02-15T01:45:42;26.57;;;15.83;;
19929;SDS011;10127;47.780;9.606;2023-02-15T01:48:22;22.97;;;14.80;;
19929;SDS011;10127;47.780;9.606;2023-02-15T01:51:01;23.07;;;14.10;;
19929;SDS011;10127;47.780;9.606;2023-02-15T01:53:29;26.33;;;14.93;;
19929;SDS011;10127;47.780;9.606;2023-02-15T01:56:04;24.43;;;13.53;;
19929;SDS011;10127;47.780;9.606;2023-02-15T01:58:34;23.00;;;14.37;;
19929;SDS011;10127;47.780;9.606;2023-02-15T02:01:01;23.77;;;15.00;;
19929;SDS011;10127;47.780;9.606;2023-02-15T02:06:29;22.13;;;13.43;;
19929;SDS011;10127;47.780;9.606;2023-02-15T02:08:57;39.67;;;15.93;;
19929;SDS011;10127;47.780;9.606;2023-02-15T02:11:23;33.30;;;14.73;;
19929;SDS011;10127;47.780;9.606;2023-02-15T02:13:48;20.20;;;13.47;;
19929;SDS011;10127;47.780;9.606;2023-02-15T02:18:57;28.13;;;14.03;;
19929;SDS011;10127;47.780;9.606;2023-02-15T02:24:49;29.40;;;15.57;;
19929;SDS011;10127;47.780;9.606;2023-02-15T02:44:36;21.10;;;13.37;;
19929;SDS011;10127;47.780;9.606;2023-02-15T02:47:14;35.77;;;12.93;;
19929;SDS011;10127;47.780;9.606;2023-02-15T02:49:52;26.70;;;14.07;;
19929;SDS011;10127;47.780;9.606;2023-02-15T03:13:38;26.47;;;14.23;;
19929;SDS011;10127;47.780;9.606;2023-02-15T03:16:05;23.53;;;13.87;;
19929;SDS011;10127;47.780;9.606;2023-02-15T03:18:54;27.37;;;13.53;;
19929;SDS011;10127;47.780;9.606;2023-02-15T03:24:10;34.37;;;14.63;;
19929;SDS011;10127;47.780;9.606;2023-02-15T03:26:43;26.63;;;14.27;;
19929;SDS011;10127;47.780;9.606;2023-02-15T03:29:11;24.70;;;13.90;;
19929;SDS011;10127;47.780;9.606;2023-02-15T03:31:41;41.17;;;15.13;;
19929;SDS011;10127;47.780;9.606;2023-02-15T03:34:11;25.00;;;14.40;;
19929;SDS011;10127;47.780;9.606;2023-02-15T03:36:44;24.70;;;13.67;;
19929;SDS011;10127;47.780;9.606;2023-02-15T03:39:22;25.13;;;14.27;;
19929;SDS011;10127;47.780;9.606;2023-02-15T03:42:19;26.87;;;14.33;;
19929;SDS011;10127;47.780;9.606;2023-02-15T03:44:55;22.07;;;13.83;;
19929;SDS011;10127;47.780;9.606;2023-02-15T03:47:23;24.10;;;13.37;;
19929;SDS011;10127;47.780;9.606;2023-02-15T03:52:54;26.37;;;13.63;;
19929;SDS011;10127;47.780;9.606;2023-02-15T03:55:22;20.93;;;12.83;;
19929;SDS011;10127;47.780;9.606;2023-02-15T03:57:48;20.97;;;13.00;;
19929;SDS011;10127;47.780;9.606;2023-02-15T04:00:33;24.60;;;13.30;;
19929;SDS011;10127;47.780;9.606;2023-02-15T04:05:51;28.20;;;14.57;;
19929;SDS011;10127;47.780;9.606;2023-02-15T04:08:16;24.60;;;14.03;;
19929;SDS011;10127;47.780;9.606;2023-02-15T04:10:42;28.90;;;13.83;;
19929;SDS011;10127;47.780;9.606;2023-02-15T04:13:17;30.20;;;13.63;;
19929;SDS011;10127;47.780;9.606;2023-02-15T04:16:02;25.60;;;13.93;;
19929;SDS011;10127;47.780;9.606;2023-02-15T04:18:32;29.87;;;14.07;;
19929;SDS011;10127;47.780;9.606;2023-02-15T04:21:21;36.60;;;14.07;;
19929;SDS011;10127;47.780;9.606;2023-02-15T04:24:06;26.73;;;14.77;;
19929;SDS011;10127;47.780;9.606;2023-02-15T04:26:51;28.20;;;14.20;;
19929;SDS011;10127;47.780;9.606;2023-02-15T04:29:20;31.63;;;14.70;;
19929;SDS011;10127;47.780;9.606;2023-02-15T04:31:47;29.03;;;13.60;;
19929;SDS011;10127;47.780;9.606;2023-02-15T04:34:13;27.30;;;13.37;;
19929;SDS011;10127;47.780;9.606;2023-02-15T04:36:39;27.97;;;14.10;;
19929;SDS011;10127;47.780;9.606;2023-02-15T04:39:05;28.50;;;14.23;;
19929;SDS011;10127;47.780;9.606;2023-02-15T04:41:32;31.50;;;15.03;;
19929;SDS011;10127;47.780;9.606;2023-02-15T04:43:58;27.33;;;14.97;;
19929;SDS011;10127;47.780;9.606;2023-02-15T04:46:24;28.93;;;15.17;;
19929;SDS011;10127;47.780;9.606;2023-02-15T04:48:50;27.60;;;14.73;;
19929;SDS011;10127;47.780;9.606;2023-02-15T04:51:15;32.20;;;15.20;;
19929;SDS011;10127;47.780;9.606;2023-02-15T04:53:41;28.27;;;14.77;;
19929;SDS011;10127;47.780;9.606;2023-02-15T04:56:06;28.93;;;14.33;;
19929;SDS011;10127;47.780;9.606;2023-02-15T04:58:32;27.17;;;14.67;;
19929;SDS011;10127;47.780;9.606;2023-02-15T05:00:58;29.77;;;14.50;;
19929;SDS011;10127;47.780;9.606;2023-02-15T05:03:24;39.53;;;13.40;;
19929;SDS011;10127;47.780;9.606;2023-02-15T05:05:50;28.50;;;14.67;;
19929;SDS011;10127;47.780;9.606;2023-02-15T05:08:16;32.60;;;14.20;;
19929;SDS011;10127;47.780;9.606;2023-02-15T05:10:42;29.97;;;15.33;;
19929;SDS011;10127;47.780;9.606;2023-02-15T05:13:07;33.47;;;14.70;;
19929;SDS011;10127;47.780;9.606;2023-02-15T05:15:33;31.07;;;16.07;;
19929;SDS011;10127;47.780;9.606;2023-02-15T05:17:58;32.53;;;15.13;;
19929;SDS011;10127;47.780;9.606;2023-02-15T05:20:24;34.37;;;15.30;;
19929;SDS011;10127;47.780;9.606;2023-02-15T05:22:52;29.20;;;15.00;;
19929;SDS011;10127;47.780;9.606;2023-02-15T05:25:19;42.77;;;14.67;;
19929;SDS011;10127;47.780;9.606;2023-02-15T05:28:03;35.93;;;15.53;;
19929;SDS011;10127;47.780;9.606;2023-02-15T05:30:44;30.63;;;15.10;;
19929;SDS011;10127;47.780;9.606;2023-02-15T05:33:10;30.87;;;14.43;;
19929;SDS011;10127;47.780;9.606;2023-02-15T05:35:36;30.63;;;15.43;;
19929;SDS011;10127;47.780;9.606;2023-02-15T05:38:01;39.23;;;16.70;;
19929;SDS011;10127;47.780;9.606;2023-02-15T05:40:27;31.00;;;16.53;;
19929;SDS011;10127;47.780;9.606;2023-02-15T05:42:52;34.77;;;14.83;;
19929;SDS011;10127;47.780;9.606;2023-02-15T05:45:18;30.10;;;15.73;;
19929;SDS011;10127;47.780;9.606;2023-02-15T05:47:43;34.37;;;15.17;;
19929;SDS011;10127;47.780;9.606;2023-02-15T05:50:09;30.90;;;16.23;;
19929;SDS011;10127;47.780;9.606;2023-02-15T05:52:36;36.27;;;16.57;;
19929;SDS011;10127;47.780;9.606;2023-02-15T05:55:01;36.80;;;17.13;;
19929;SDS011;10127;47.780;9.606;2023-02-15T05:57:29;37.80;;;17.33;;
19929;SDS011;10127;47.780;9.606;2023-02-15T05:59:55;35.50;;;16.17;;
19929;SDS011;10127;47.780;9.606;2023-02-15T06:02:20;33.33;;;15.30;;
19929;SDS011;10127;47.780;9.606;2023-02-15T06:04:46;28.57;;;16.03;;
19929;SDS011;10127;47.780;9.606;2023-02-15T06:07:12;37.50;;;16.10;;
19929;SDS011;10127;47.780;9.606;2023-02-15T06:09:37;39.13;;;15.70;;
19929;SDS011;10127;47.780;9.606;2023-02-15T06:12:03;32.93;;;15.73;;
19929;SDS011;10127;47.780;9.606;2023-02-15T06:14:28;34.07;;;17.00;;
19929;SDS011;10127;47.780;9.606;2023-02-15T06:16:54;34.43;;;16.70;;
19929;SDS011;10127;47.780;9.606;2023-02-15T06:19:19;35.67;;;16.87;;
19929;SDS011;10127;47.780;9.606;2023-02-15T06:21:46;34.63;;;16.77;;
19929;SDS011;10127;47.780;9.606;2023-02-15T06:24:12;36.30;;;16.47;;
19929;SDS011;10127;47.780;9.606;2023-02-15T06:26:37;35.73;;;17.60;;
19929;SDS011;10127;47.780;9.606;2023-02-15T06:29:03;34.47;;;16.43;;
19929;SDS011;10127;47.780;9.606;2023-02-15T06:31:28;44.93;;;20.63;;
19929;SDS011;10127;47.780;9.606;2023-02-15T06:33:54;40.53;;;20.30;;
19929;SDS011;10127;47.780;9.606;2023-02-15T06:36:26;33.83;;;16.23;;
19929;SDS011;10127;47.780;9.606;2023-02-15T06:38:53;39.63;;;17.73;;
19929;SDS011;10127;47.780;9.606;2023-02-15T06:41:19;39.47;;;16.83;;
19929;SDS011;10127;47.780;9.606;2023-02-15T06:43:44;34.13;;;16.93;;
19929;SDS011;10127;47.780;9.606;2023-02-15T06:46:10;39.13;;;15.97;;
19929;SDS011;10127;47.780;9.606;2023-02-15T06:48:35;34.03;;;16.60;;
19929;SDS011;10127;47.780;9.606;2023-02-15T06:51:01;42.87;;;17.43;;
19929;SDS011;10127;47.780;9.606;2023-02-15T06:53:27;35.37;;;16.27;;
19929;SDS011;10127;47.780;9.606;2023-02-15T06:55:52;39.63;;;18.13;;
19929;SDS011;10127;47.780;9.606;2023-02-15T06:58:24;59.80;;;28.93;;
19929;SDS011;10127;47.780;9.606;2023-02-15T07:00:51;54.43;;;26.43;;
19929;SDS011;10127;47.780;9.606;2023-02-15T07:03:16;40.97;;;18.73;;
19929;SDS011;10127;47.780;9.606;2023-02-15T07:05:43;42.33;;;18.43;;
19929;SDS011;10127;47.780;9.606;2023-02-15T07:08:10;37.57;;;18.77;;
19929;SDS011;10127;47.780;9.606;2023-02-15T07:10:36;34.20;;;17.07;;
19929;SDS011;10127;47.780;9.606;2023-02-15T07:13:01;34.73;;;16.53;;
19929;SDS011;10127;47.780;9.606;2023-02-15T07:15:27;32.50;;;16.10;;
19929;SDS011;10127;47.780;9.606;2023-02-15T07:17:52;32.20;;;17.40;;
19929;SDS011;10127;47.780;9.606;2023-02-15T07:20:19;35.13;;;17.10;;
19929;SDS011;10127;47.780;9.606;2023-02-15T07:22:46;33.97;;;17.33;;
19929;SDS011;10127;47.780;9.606;2023-02-15T07:25:12;38.03;;;16.87;;
19929;SDS011;10127;47.780;9.606;2023-02-15T07:27:38;41.87;;;16.90;;
19929;SDS011;10127;47.780;9.606;2023-02-15T07:30:05;35.47;;;17.63;;
19929;SDS011;10127;47.780;9.606;2023-02-15T07:32:33;38.10;;;18.20;;
19929;SDS011;10127;47.780;9.606;2023-02-15T07:34:58;38.23;;;18.03;;
19929;SDS011;10127;47.780;9.606;2023-02-15T07:37:24;39.97;;;18.33;;
19929;SDS011;10127;47.780;9.606;2023-02-15T07:39:50;34.90;;;18.33;;
19929;SDS011;10127;47.780;9.606;2023-02-15T07:42:16;47.67;;;22.23;;
19929;SDS011;10127;47.780;9.606;2023-02-15T07:44:42;32.70;;;17.63;;
19929;SDS011;10127;47.780;9.606;2023-02-15T07:47:08;32.67;;;17.17;;
19929;SDS011;10127;47.780;9.606;2023-02-15T07:49:34;39.33;;;19.27;;
19929;SDS011;10127;47.780;9.606;2023-02-15T07:52:00;42.73;;;22.07;;
19929;SDS011;10127;47.780;9.606;2023-02-15T07:54:26;33.20;;;17.60;;
19929;SDS011;10127;47.780;9.606;2023-02-15T07:56:52;32.97;;;18.13;;
19929;SDS011;10127;47.780;9.606;2023-02-15T07:59:18;42.17;;;17.93;;
19929;SDS011;10127;47.780;9.606;2023-02-15T08:01:44;38.00;;;17.97;;
19929;SDS011;10127;47.780;9.606;2023-02-15T08:04:10;38.90;;;20.23;;
19929;SDS011;10127;47.780;9.606;2023-02-15T08:06:36;31.13;;;17.50;;
19929;SDS011;10127;47.780;9.606;2023-02-15T08:09:05;30.57;;;16.27;;
19929;SDS011;10127;47.780;9.606;2023-02-15T08:11:33;33.23;;;17.83;;
19929;SDS011;10127;47.780;9.606;2023-02-15T08:16:44;34.00;;;16.70;;
19929;SDS011;10127;47.780;9.606;2023-02-15T08:19:14;39.77;;;22.07;;
19929;SDS011;10127;47.780;9.606;2023-02-15T08:21:54;32.40;;;16.17;;
19929;SDS011;10127;47.780;9.606;2023-02-15T08:24:25;31.67;;;16.53;;
19929;SDS011;10127;47.780;9.606;2023-02-15T08:26:54;34.33;;;16.37;;
19929;SDS011;10127;47.780;9.606;2023-02-15T08:29:21;33.17;;;16.77;;
19929;SDS011;10127;47.780;9.606;2023-02-15T08:31:49;39.20;;;19.20;;
19929;SDS011;10127;47.780;9.606;2023-02-15T08:34:23;36.03;;;17.57;;
19929;SDS011;10127;47.780;9.606;2023-02-15T08:36:49;31.00;;;17.13;;
19929;SDS011;10127;47.780;9.606;2023-02-15T08:39:15;32.07;;;16.90;;
19929;SDS011;10127;47.780;9.606;2023-02-15T08:41:42;33.07;;;17.70;;
19929;SDS011;10127;47.780;9.606;2023-02-15T08:44:09;33.93;;;17.07;;
19929;SDS011;10127;47.780;9.606;2023-02-15T08:46:36;34.20;;;18.07;;
19929;SDS011;10127;47.780;9.606;2023-02-15T08:49:05;32.87;;;17.13;;
19929;SDS011;10127;47.780;9.606;2023-02-15T08:51:32;33.77;;;18.37;;
19929;SDS011;10127;47.780;9.606;2023-02-15T08:54:00;29.30;;;16.67;;
19929;SDS011;10127;47.780;9.606;2023-02-15T08:56:29;33.30;;;17.10;;
19929;SDS011;10127;47.780;9.606;2023-02-15T08:58:58;40.43;;;17.13;;
19929;SDS011;10127;47.780;9.606;2023-02-15T09:01:24;36.47;;;17.77;;
19929;SDS011;10127;47.780;9.606;2023-02-15T09:03:54;49.83;;;19.33;;
19929;SDS011;10127;47.780;9.606;2023-02-15T09:06:22;40.10;;;17.67;;
19929;SDS011;10127;47.780;9.606;2023-02-15T09:08:48;33.37;;;17.90;;
19929;SDS011;10127;47.780;9.606;2023-02-15T09:11:19;30.03;;;16.80;;
19929;SDS011;10127;47.780;9.606;2023-02-15T09:14:11;32.67;;;17.67;;
19929;SDS011;10127;47.780;9.606;2023-02-15T09:16:39;37.33;;;17.83;;
19929;SDS011;10127;47.780;9.606;2023-02-15T09:19:06;33.97;;;16.80;;
19929;SDS011;10127;47.780;9.606;2023-02-15T09:21:32;33.53;;;17.97;;
19929;SDS011;10127;47.780;9.606;2023-02-15T09:24:01;29.70;;;17.13;;
19929;SDS011;10127;47.780;9.606;2023-02-15T09:26:30;37.33;;;18.77;;
19929;SDS011;10127;47.780;9.606;2023-02-15T09:28:58;35.00;;;17.37;;
19929;SDS011;10127;47.780;9.606;2023-02-15T09:31:47;35.23;;;17.07;;
19929;SDS011;10127;47.780;9.606;2023-02-15T09:34:14;36.60;;;18.47;;
19929;SDS011;10127;47.780;9.606;2023-02-15T09:36:43;34.03;;;17.37;;
19929;SDS011;10127;47.780;9.606;2023-02-15T09:39:10;34.83;;;17.77;;
19929;SDS011;10127;47.780;9.606;2023-02-15T09:48:22;42.67;;;25.37;;
19929;SDS011;10127;47.780;9.606;2023-02-15T09:53:25;32.27;;;16.83;;
19929;SDS011;10127;47.780;9.606;2023-02-15T09:56:02;30.33;;;15.47;;
19929;SDS011;10127;47.780;9.606;2023-02-15T10:01:56;31.53;;;17.30;;
19929;SDS011;10127;47.780;9.606;2023-02-15T10:13:02;35.33;;;17.23;;
19929;SDS011;10127;47.780;9.606;2023-02-15T10:15:47;37.20;;;17.90;;
19929;SDS011;10127;47.780;9.606;2023-02-15T10:24:12;34.20;;;19.33;;
19929;SDS011;10127;47.780;9.606;2023-02-15T10:26:46;38.87;;;19.70;;
19929;SDS011;10127;47.780;9.606;2023-02-15T10:29:26;31.20;;;17.27;;
19929;SDS011;10127;47.780;9.606;2023-02-15T10:32:20;33.07;;;17.63;;
19929;SDS011;10127;47.780;9.606;2023-02-15T10:35:00;36.00;;;18.90;;
19929;SDS011;10127;47.780;9.606;2023-02-15T10:37:48;39.80;;;17.97;;
19929;SDS011;10127;47.780;9.606;2023-02-15T10:40:28;31.87;;;17.97;;
19929;SDS011;10127;47.780;9.606;2023-02-15T10:51:00;33.90;;;18.70;;
19929;SDS011;10127;47.780;9.606;2023-02-15T11:07:06;35.30;;;18.60;;
19929;SDS011;10127;47.780;9.606;2023-02-15T11:09:48;50.90;;;29.93;;
19929;SDS011;10127;47.780;9.606;2023-02-15T11:12:20;60.33;;;32.90;;
19929;SDS011;10127;47.780;9.606;2023-02-15T11:14:50;35.67;;;18.50;;
19929;SDS011;10127;47.780;9.606;2023-02-15T11:17:28;50.63;;;27.60;;
19929;SDS011;10127;47.780;9.606;2023-02-15T11:22:35;31.37;;;16.90;;
19929;SDS011;10127;47.780;9.606;2023-02-15T11:25:01;29.47;;;16.37;;
19929;SDS011;10127;47.780;9.606;2023-02-15T11:27:39;33.03;;;18.47;;
19929;SDS011;10127;47.780;9.606;2023-02-15T11:30:12;31.47;;;18.03;;
19929;SDS011;10127;47.780;9.606;2023-02-15T11:32:40;31.90;;;17.60;;
19929;SDS011;10127;47.780;9.606;2023-02-15T11:37:44;58.00;;;32.27;;
19929;SDS011;10127;47.780;9.606;2023-02-15T11:40:35;33.03;;;18.83;;
19929;SDS011;10127;47.780;9.606;2023-02-15T11:43:14;34.57;;;17.97;;
19929;SDS011;10127;47.780;9.606;2023-02-15T11:45:45;33.60;;;18.33;;
19929;SDS011;10127;47.780;9.606;2023-02-15T11:48:12;32.63;;;18.90;;
19929;SDS011;10127;47.780;9.606;2023-02-15T11:50:39;36.20;;;20.00;;
19929;SDS011;10127;47.780;9.606;2023-02-15T11:53:09;39.83;;;22.07;;
19929;SDS011;10127;47.780;9.606;2023-02-15T11:55:44;57.10;;;31.77;;
19929;SDS011;10127;47.780;9.606;2023-02-15T12:01:00;34.03;;;18.90;;
19929;SDS011;10127;47.780;9.606;2023-02-15T12:06:46;40.70;;;19.10;;
19929;SDS011;10127;47.780;9.606;2023-02-15T12:11:52;30.97;;;17.33;;
19929;SDS011;10127;47.780;9.606;2023-02-15T12:14:18;31.80;;;17.27;;
19929;SDS011;10127;47.780;9.606;2023-02-15T12:22:02;32.27;;;17.63;;
19929;SDS011;10127;47.780;9.606;2023-02-15T12:26:59;29.20;;;17.73;;
19929;SDS011;10127;47.780;9.606;2023-02-15T12:30:18;31.37;;;18.00;;
19929;SDS011;10127;47.780;9.606;2023-02-15T12:32:24;33.47;;;18.00;;
19929;SDS011;10127;47.780;9.606;2023-02-15T12:34:58;29.57;;;17.13;;
19929;SDS011;10127;47.780;9.606;2023-02-15T12:37:38;33.47;;;17.40;;
19929;SDS011;10127;47.780;9.606;2023-02-15T12:40:21;29.00;;;17.70;;
19929;SDS011;10127;47.780;9.606;2023-02-15T12:42:49;34.17;;;18.87;;
19929;SDS011;10127;47.780;9.606;2023-02-15T12:45:31;34.23;;;17.80;;
19929;SDS011;10127;47.780;9.606;2023-02-15T12:50:44;37.93;;;18.53;;
19929;SDS011;10127;47.780;9.606;2023-02-15T12:55:58;37.87;;;18.70;;
19929;SDS011;10127;47.780;9.606;2023-02-15T12:58:29;35.77;;;19.17;;
19929;SDS011;10127;47.780;9.606;2023-02-15T13:01:18;38.20;;;18.30;;
19929;SDS011;10127;47.780;9.606;2023-02-15T13:04:04;32.40;;;17.87;;
19929;SDS011;10127;47.780;9.606;2023-02-15T13:06:45;31.23;;;16.70;;
19929;SDS011;10127;47.780;9.606;2023-02-15T13:09:35;32.93;;;18.13;;
19929;SDS011;10127;47.780;9.606;2023-02-15T13:12:17;36.03;;;19.40;;
19929;SDS011;10127;47.780;9.606;2023-02-15T13:14:47;37.67;;;18.33;;
19929;SDS011;10127;47.780;9.606;2023-02-15T13:17:16;43.07;;;20.67;;
19929;SDS011;10127;47.780;9.606;2023-02-15T13:19:57;33.80;;;18.30;;
19929;SDS011;10127;47.780;9.606;2023-02-15T13:22:38;33.03;;;17.77;;
19929;SDS011;10127;47.780;9.606;2023-02-15T13:25:24;42.97;;;19.97;;
19929;SDS011;10127;47.780;9.606;2023-02-15T13:27:52;37.83;;;18.20;;
19929;SDS011;10127;47.780;9.606;2023-02-15T13:30:36;33.07;;;19.03;;
19929;SDS011;10127;47.780;9.606;2023-02-15T13:33:08;29.67;;;17.37;;
19929;SDS011;10127;47.780;9.606;2023-02-15T13:35:41;33.13;;;18.13;;
19929;SDS011;10127;47.780;9.606;2023-02-15T13:41:16;28.80;;;15.97;;
19929;SDS011;10127;47.780;9.606;2023-02-15T13:52:30;32.23;;;18.77;;
19929;SDS011;10127;47.780;9.606;2023-02-15T14:00:36;28.43;;;16.27;;
19929;SDS011;10127;47.780;9.606;2023-02-15T14:15:02;34.00;;;15.47;;
19929;SDS011;10127;47.780;9.606;2023-02-15T14:26:05;32.10;;;17.13;;
19929;SDS011;10127;47.780;9.606;2023-02-15T14:31:13;26.50;;;15.83;;
19929;SDS011;10127;47.780;9.606;2023-02-15T14:33:41;28.20;;;16.37;;
19929;SDS011;10127;47.780;9.606;2023-02-15T14:36:18;21.90;;;14.53;;
19929;SDS011;10127;47.780;9.606;2023-02-15T14:42:11;25.97;;;16.03;;
19929;SDS011;10127;47.780;9.606;2023-02-15T14:47:12;25.90;;;15.32;;
19929;SDS011;10127;47.780;9.606;2023-02-15T14:49:42;31.10;;;18.83;;
19929;SDS011;10127;47.780;9.606;2023-02-15T14:52:11;30.70;;;19.88;;
19929;SDS011;10127;47.780;9.606;2023-02-15T15:02:26;26.25;;;16.30;;
19929;SDS011;10127;47.780;9.606;2023-02-15T15:08:00;27.52;;;16.13;;
19929;SDS011;10127;47.780;9.606;2023-02-15T15:10:42;31.00;;;16.85;;
19929;SDS011;10127;47.780;9.606;2023-02-15T15:13:52;24.58;;;14.63;;
19929;SDS011;10127;47.780;9.606;2023-02-15T15:16:24;26.95;;;16.63;;
19929;SDS011;10127;47.780;9.606;2023-02-15T15:19:03;28.40;;;16.75;;
19929;SDS011;10127;47.780;9.606;2023-02-15T15:35:36;26.80;;;16.30;;
19929;SDS011;10127;47.780;9.606;2023-02-15T15:49:18;27.15;;;17.13;;
19929;SDS011;10127;47.780;9.606;2023-02-15T15:51:46;30.00;;;17.98;;
19929;SDS011;10127;47.780;9.606;2023-02-15T15:54:15;33.05;;;19.30;;
19929;SDS011;10127;47.780;9.606;2023-02-15T15:56:44;35.63;;;20.47;;
19929;SDS011;10127;47.780;9.606;2023-02-15T15:59:16;34.40;;;20.90;;
19929;SDS011;10127;47.780;9.606;2023-02-15T16:01:54;33.30;;;19.27;;
19929;SDS011;10127;47.780;9.606;2023-02-15T16:04:30;33.73;;;19.13;;
19929;SDS011;10127;47.780;9.606;2023-02-15T16:07:43;33.93;;;18.87;;
19929;SDS011;10127;47.780;9.606;2023-02-15T16:12:20;34.27;;;20.57;;
19929;SDS011;10127;47.780;9.606;2023-02-15T16:14:46;31.27;;;18.43;;
19929;SDS011;10127;47.780;9.606;2023-02-15T16:17:20;30.97;;;19.57;;
19929;SDS011;10127;47.780;9.606;2023-02-15T16:19:52;32.33;;;17.90;;
19929;SDS011;10127;47.780;9.606;2023-02-15T16:22:21;35.13;;;18.77;;
19929;SDS011;10127;47.780;9.606;2023-02-15T16:25:03;25.90;;;16.57;;
19929;SDS011;10127;47.780;9.606;2023-02-15T16:27:46;28.93;;;16.87;;
19929;SDS011;10127;47.780;9.606;2023-02-15T16:33:09;28.03;;;17.67;;
19929;SDS011;10127;47.780;9.606;2023-02-15T16:35:37;32.60;;;18.27;;
19929;SDS011;10127;47.780;9.606;2023-02-15T16:38:04;27.27;;;17.43;;
19929;SDS011;10127;47.780;9.606;2023-02-15T16:40:47;28.30;;;17.37;;
19929;SDS011;10127;47.780;9.606;2023-02-15T16:43:22;27.77;;;17.83;;
19929;SDS011;10127;47.780;9.606;2023-02-15T16:45:51;33.67;;;19.27;;
19929;SDS011;10127;47.780;9.606;2023-02-15T16:48:23;33.97;;;21.13;;
19929;SDS011;10127;47.780;9.606;2023-02-15T16:50:53;28.67;;;18.67;;
19929;SDS011;10127;47.780;9.606;2023-02-15T16:53:22;27.50;;;17.03;;
19929;SDS011;10127;47.780;9.606;2023-02-15T16:55:51;31.47;;;17.47;;
19929;SDS011;10127;47.780;9.606;2023-02-15T16:58:22;31.00;;;18.83;;
19929;SDS011;10127;47.780;9.606;2023-02-15T17:01:05;32.93;;;18.30;;
19929;SDS011;10127;47.780;9.606;2023-02-15T17:03:34;31.57;;;17.07;;
19929;SDS011;10127;47.780;9.606;2023-02-15T17:06:00;28.97;;;18.40;;
19929;SDS011;10127;47.780;9.606;2023-02-15T17:08:31;28.50;;;18.00;;
19929;SDS011;10127;47.780;9.606;2023-02-15T17:13:24;30.93;;;18.43;;
19929;SDS011;10127;47.780;9.606;2023-02-15T17:18:23;27.33;;;17.17;;
19929;SDS011;10127;47.780;9.606;2023-02-15T17:20:50;30.53;;;17.77;;
19929;SDS011;10127;47.780;9.606;2023-02-15T17:25:50;34.03;;;18.73;;
19929;SDS011;10127;47.780;9.606;2023-02-15T17:28:29;31.37;;;19.33;;
19929;SDS011;10127;47.780;9.606;2023-02-15T17:30:56;35.10;;;19.27;;
19929;SDS011;10127;47.780;9.606;2023-02-15T17:33:28;37.47;;;19.67;;
19929;SDS011;10127;47.780;9.606;2023-02-15T17:36:06;35.50;;;19.97;;
19929;SDS011;10127;47.780;9.606;2023-02-15T17:41:31;31.83;;;19.60;;
19929;SDS011;10127;47.780;9.606;2023-02-15T17:44:00;35.23;;;19.97;;
19929;SDS011;10127;47.780;9.606;2023-02-15T17:46:28;35.17;;;19.83;;
19929;SDS011;10127;47.780;9.606;2023-02-15T17:48:59;33.00;;;19.13;;
19929;SDS011;10127;47.780;9.606;2023-02-15T17:51:26;30.60;;;18.77;;
19929;SDS011;10127;47.780;9.606;2023-02-15T17:53:51;31.37;;;19.03;;
19929;SDS011;10127;47.780;9.606;2023-02-15T17:56:37;34.43;;;19.60;;
19929;SDS011;10127;47.780;9.606;2023-02-15T17:59:03;36.20;;;19.57;;
19929;SDS011;10127;47.780;9.606;2023-02-15T18:01:31;32.20;;;19.67;;
19929;SDS011;10127;47.780;9.606;2023-02-15T18:04:18;34.60;;;19.80;;
19929;SDS011;10127;47.780;9.606;2023-02-15T18:07:03;33.33;;;19.07;;
19929;SDS011;10127;47.780;9.606;2023-02-15T18:09:47;33.60;;;18.87;;
19929;SDS011;10127;47.780;9.606;2023-02-15T18:12:32;32.57;;;19.30;;
19929;SDS011;10127;47.780;9.606;2023-02-15T18:15:00;30.83;;;18.57;;
19929;SDS011;10127;47.780;9.606;2023-02-15T18:17:37;32.10;;;19.03;;
19929;SDS011;10127;47.780;9.606;2023-02-15T18:22:42;31.20;;;17.80;;
19929;SDS011;10127;47.780;9.606;2023-02-15T18:25:12;30.00;;;18.07;;
19929;SDS011;10127;47.780;9.606;2023-02-15T18:27:39;29.33;;;17.87;;
19929;SDS011;10127;47.780;9.606;2023-02-15T18:30:05;34.37;;;20.33;;
19929;SDS011;10127;47.780;9.606;2023-02-15T18:32:32;33.37;;;19.50;;
19929;SDS011;10127;47.780;9.606;2023-02-15T18:35:01;33.23;;;18.73;;